createdAt,value
2023-04-26T00:01:55.204Z,1.47
2023-04-26T00:04:21.940Z,1.47
2023-04-26T00:06:49.291Z,1.53
2023-04-26T00:09:16.091Z,1.83
2023-04-26T00:11:42.649Z,1.30
2023-04-26T00:14:09.260Z,1.40
2023-04-26T00:16:36.009Z,1.63
2023-04-26T00:19:02.592Z,1.80
2023-04-26T00:21:29.104Z,1.57
2023-04-26T00:23:56.009Z,1.80
2023-04-26T00:26:22.690Z,1.63
2023-04-26T00:28:49.275Z,1.57
2023-04-26T00:31:16.229Z,1.60
2023-04-26T00:33:42.950Z,1.60
2023-04-26T00:36:09.543Z,1.37
2023-04-26T00:38:36.184Z,1.50
2023-04-26T00:41:02.765Z,1.80
2023-04-26T00:43:29.330Z,1.90
2023-04-26T00:45:56.152Z,1.80
2023-04-26T00:48:22.868Z,1.77
2023-04-26T00:50:49.569Z,1.47
2023-04-26T00:53:16.666Z,1.53
2023-04-26T00:55:43.582Z,1.50
2023-04-26T00:58:10.545Z,1.60
2023-04-26T01:00:37.057Z,1.73
2023-04-26T01:03:03.852Z,1.30
2023-04-26T01:05:30.582Z,1.20
2023-04-26T01:07:57.757Z,1.53
2023-04-26T01:10:24.454Z,1.77
2023-04-26T01:12:51.100Z,1.40
2023-04-26T01:15:18.164Z,1.80
2023-04-26T01:17:46.852Z,1.40
2023-04-26T01:20:13.946Z,1.50
2023-04-26T01:22:41.466Z,1.77
2023-04-26T01:25:12.125Z,1.67
2023-04-26T01:27:39.098Z,2.00
2023-04-26T01:30:05.944Z,1.70
2023-04-26T01:32:32.533Z,1.50
2023-04-26T01:35:00.190Z,1.77
2023-04-26T01:37:26.820Z,1.50
2023-04-26T01:39:53.447Z,1.50
2023-04-26T01:42:26.253Z,1.60
2023-04-26T01:44:53.575Z,1.67
2023-04-26T01:47:20.101Z,1.33
2023-04-26T01:49:46.745Z,1.50
2023-04-26T01:52:13.513Z,1.43
2023-04-26T01:54:40.031Z,1.40
2023-04-26T01:57:06.874Z,1.67
2023-04-26T01:59:33.482Z,1.80
2023-04-26T02:02:00.102Z,1.47
2023-04-26T02:04:27.335Z,1.37
2023-04-26T02:06:54.374Z,1.63
2023-04-26T02:09:20.957Z,2.00
2023-04-26T02:11:47.468Z,1.60
2023-04-26T02:14:14.155Z,1.70
2023-04-26T02:16:41.905Z,1.60
2023-04-26T02:19:10.924Z,1.50
2023-04-26T02:21:50.557Z,1.50
2023-04-26T02:24:17.067Z,1.77
2023-04-26T02:26:43.571Z,1.77
2023-04-26T02:29:10.066Z,1.60
2023-04-26T02:31:36.717Z,1.77
2023-04-26T02:34:03.471Z,1.53
2023-04-26T02:36:30.320Z,1.80
2023-04-26T02:38:56.856Z,1.93
2023-04-26T02:41:24.891Z,1.53
2023-04-26T02:43:51.606Z,1.60
2023-04-26T02:46:18.437Z,2.37
2023-04-26T02:48:45.307Z,1.33
2023-04-26T02:51:12.605Z,2.10
2023-04-26T02:53:39.164Z,1.50
2023-04-26T02:56:06.226Z,1.70
2023-04-26T02:58:33.801Z,1.50
2023-04-26T03:01:01.669Z,1.73
2023-04-26T03:03:29.014Z,1.87
2023-04-26T03:05:56.278Z,2.50
2023-04-26T03:08:22.946Z,2.20
2023-04-26T03:10:49.465Z,2.07
2023-04-26T03:13:16.310Z,2.13
2023-04-26T03:15:46.495Z,2.20
2023-04-26T03:18:13.052Z,2.33
2023-04-26T03:20:39.803Z,2.20
2023-04-26T03:23:06.723Z,2.10
2023-04-26T03:25:33.901Z,2.13
2023-04-26T03:28:00.427Z,2.40
2023-04-26T03:30:27.029Z,2.53
2023-04-26T03:32:54.676Z,2.27
2023-04-26T03:35:21.479Z,2.80
2023-04-26T03:37:48.045Z,2.50
2023-04-26T03:40:17.139Z,2.50
2023-04-26T03:42:45.915Z,2.30
2023-04-26T03:45:12.481Z,2.37
2023-04-26T03:47:39.014Z,2.70
2023-04-26T03:50:07.256Z,2.20
2023-04-26T03:52:34.542Z,2.30
2023-04-26T03:55:02.343Z,2.70
2023-04-26T03:57:29.615Z,2.40
2023-04-26T03:59:56.349Z,2.70
2023-04-26T04:02:24.068Z,2.57
2023-04-26T04:04:50.902Z,2.83
2023-04-26T04:07:17.736Z,2.70
2023-04-26T04:09:44.365Z,2.67
2023-04-26T04:12:10.982Z,2.70
2023-04-26T04:14:37.893Z,3.00
2023-04-26T04:17:06.495Z,3.10
2023-04-26T04:19:34.082Z,3.00
2023-04-26T04:22:01.267Z,3.00
2023-04-26T04:24:29.776Z,3.00
2023-04-26T04:26:56.374Z,2.50
2023-04-26T04:29:23.304Z,2.97
2023-04-26T04:31:49.842Z,3.33
2023-04-26T04:34:16.691Z,3.67
2023-04-26T04:36:44.928Z,2.93
2023-04-26T04:39:16.093Z,3.27
2023-04-26T04:41:49.725Z,2.93
2023-04-26T04:44:18.626Z,3.00
2023-04-26T04:46:45.465Z,2.93
2023-04-26T04:49:12.746Z,3.00
2023-04-26T04:51:39.579Z,3.10
2023-04-26T04:54:12.648Z,3.20
2023-04-26T04:56:39.917Z,3.30
2023-04-26T04:59:08.352Z,3.00
2023-04-26T05:01:38.778Z,2.80
2023-04-26T05:04:10.150Z,3.00
2023-04-26T05:06:37.462Z,3.43
2023-04-26T05:09:05.865Z,3.07
2023-04-26T05:11:35.994Z,3.27
2023-04-26T05:14:03.943Z,3.30
2023-04-26T05:16:31.033Z,2.93
2023-04-26T05:18:59.524Z,2.40
2023-04-26T05:21:26.121Z,3.00
2023-04-26T05:23:52.835Z,2.93
2023-04-26T05:26:19.616Z,2.60
2023-04-26T05:29:04.498Z,2.97
2023-04-26T05:31:40.727Z,2.70
2023-04-26T05:34:13.259Z,2.97
2023-04-26T05:36:40.532Z,3.03
2023-04-26T05:39:08.147Z,2.47
2023-04-26T05:41:34.704Z,2.60
2023-04-26T05:44:01.316Z,2.90
2023-04-26T05:46:28.121Z,2.70
2023-04-26T05:48:55.252Z,3.00
2023-04-26T05:51:21.748Z,2.73
2023-04-26T05:53:48.248Z,2.73
2023-04-26T05:56:15.006Z,2.57
2023-04-26T05:58:41.753Z,2.60
2023-04-26T06:01:09.202Z,2.70
2023-04-26T06:03:35.943Z,2.53
2023-04-26T06:06:03.306Z,2.80
2023-04-26T06:08:30.833Z,3.13
2023-04-26T06:10:57.371Z,2.50
2023-04-26T06:13:24.021Z,2.83
2023-04-26T06:15:50.597Z,2.83
2023-04-26T06:18:17.458Z,2.90
2023-04-26T06:20:46.782Z,2.43
2023-04-26T06:23:13.766Z,2.80
2023-04-26T06:25:44.798Z,2.33
2023-04-26T06:28:12.412Z,2.40
2023-04-26T06:30:38.985Z,2.97
2023-04-26T06:33:06.017Z,2.50
2023-04-26T06:35:33.652Z,2.33
2023-04-26T06:38:01.956Z,2.83
2023-04-26T06:40:28.493Z,2.50
2023-04-26T06:42:55.656Z,2.40
2023-04-26T06:45:33.628Z,3.00
2023-04-26T06:48:02.195Z,2.40
2023-04-26T06:50:29.794Z,2.50
2023-04-26T06:52:56.311Z,2.30
2023-04-26T06:55:22.950Z,2.10
2023-04-26T06:57:50.618Z,2.50
2023-04-26T07:00:18.146Z,2.00
2023-04-26T07:02:44.896Z,2.27
2023-04-26T07:05:11.690Z,2.00
2023-04-26T07:07:38.235Z,1.90
2023-04-26T07:10:05.014Z,2.03
2023-04-26T07:12:31.577Z,2.37
2023-04-26T07:14:58.186Z,1.97
2023-04-26T07:17:24.844Z,1.93
2023-04-26T07:19:51.567Z,2.23
2023-04-26T07:22:18.154Z,2.00
2023-04-26T07:24:44.750Z,2.57
2023-04-26T07:27:11.290Z,2.07
2023-04-26T07:29:38.651Z,2.27
2023-04-26T07:32:05.339Z,2.00
2023-04-26T07:34:32.393Z,2.27
2023-04-26T07:36:58.877Z,2.33
2023-04-26T07:39:25.536Z,1.73
2023-04-26T07:41:52.038Z,2.30
2023-04-26T07:44:18.563Z,1.50
2023-04-26T07:46:45.142Z,1.90
2023-04-26T07:49:11.667Z,1.53
2023-04-26T07:51:38.253Z,1.90
2023-04-26T07:54:04.843Z,1.70
2023-04-26T07:56:31.358Z,1.60
2023-04-26T07:58:57.871Z,1.70
2023-04-26T08:01:24.357Z,1.60
2023-04-26T08:03:51.204Z,2.07
2023-04-26T08:06:18.034Z,1.80
2023-04-26T08:08:49.169Z,1.63
2023-04-26T08:11:15.953Z,1.70
2023-04-26T08:13:44.183Z,1.60
2023-04-26T08:16:10.842Z,1.40
2023-04-26T08:18:37.409Z,1.20
2023-04-26T08:21:04.130Z,1.70
2023-04-26T08:23:35.693Z,1.40
2023-04-26T08:26:02.315Z,1.10
2023-04-26T08:28:28.822Z,1.40
2023-04-26T08:30:55.600Z,1.70
2023-04-26T08:33:22.203Z,1.20
2023-04-26T08:35:48.892Z,1.47
2023-04-26T08:38:15.434Z,1.63
2023-04-26T08:40:43.729Z,1.43
2023-04-26T08:43:11.040Z,1.20
2023-04-26T08:45:38.429Z,1.30
2023-04-26T08:48:07.288Z,1.20
2023-04-26T08:50:34.611Z,1.57
2023-04-26T08:53:01.221Z,1.23
2023-04-26T08:55:28.206Z,0.90
2023-04-26T08:57:55.099Z,1.43
2023-04-26T09:00:22.262Z,1.70
2023-04-26T09:02:51.166Z,1.10
2023-04-26T09:05:18.679Z,1.10
2023-04-26T09:07:46.176Z,1.20
2023-04-26T09:10:13.521Z,1.30
2023-04-26T09:12:40.112Z,1.00
2023-04-26T09:15:07.405Z,1.13
2023-04-26T09:17:35.031Z,1.20
2023-04-26T09:20:02.097Z,0.87
2023-04-26T09:22:29.621Z,1.27
2023-04-26T09:24:56.230Z,1.13
2023-04-26T09:27:22.765Z,1.00
2023-04-26T09:29:58.743Z,1.13
2023-04-26T09:32:26.203Z,1.10
2023-04-26T09:34:52.734Z,1.23
2023-04-26T09:37:19.511Z,0.97
2023-04-26T09:39:46.077Z,1.50
2023-04-26T09:42:16.956Z,1.20
2023-04-26T09:44:43.468Z,1.77
2023-04-26T09:47:11.695Z,2.30
2023-04-26T09:49:51.655Z,2.40
2023-04-26T09:52:19.087Z,3.20
2023-04-26T09:54:49.319Z,1.50
2023-04-26T09:57:16.393Z,10.33
2023-04-26T09:59:47.159Z,13.40
2023-04-26T10:02:15.966Z,5.07
2023-04-26T10:04:47.780Z,2.17
2023-04-26T10:07:15.900Z,2.07
2023-04-26T10:09:42.461Z,1.70
2023-04-26T10:12:12.258Z,1.90
2023-04-26T10:14:38.891Z,2.87
2023-04-26T10:17:05.965Z,1.80
2023-04-26T10:19:34.124Z,1.60
2023-04-26T10:22:04.834Z,2.77
2023-04-26T10:24:31.391Z,2.63
2023-04-26T10:26:58.180Z,1.50
2023-04-26T10:29:25.799Z,1.50
2023-04-26T10:32:04.616Z,1.20
2023-04-26T10:34:32.142Z,1.30
2023-04-26T10:37:14.529Z,1.97
2023-04-26T10:39:41.753Z,1.40
2023-04-26T10:42:27.710Z,1.97
2023-04-26T10:44:55.371Z,1.73
2023-04-26T10:47:21.968Z,1.40
2023-04-26T10:49:48.700Z,1.37
2023-04-26T10:52:20.466Z,3.50
2023-04-26T10:54:47.741Z,1.60
2023-04-26T10:57:14.595Z,1.60
2023-04-26T10:59:53.969Z,2.73
2023-04-26T11:02:41.047Z,1.40
2023-04-26T11:05:08.603Z,1.13
2023-04-26T11:07:38.425Z,1.40
2023-04-26T11:10:09.542Z,1.37
2023-04-26T11:12:36.626Z,1.60
2023-04-26T11:15:03.532Z,1.50
2023-04-26T11:17:36.723Z,1.40
2023-04-26T11:20:07.318Z,1.40
2023-04-26T11:22:34.852Z,1.40
2023-04-26T11:25:01.729Z,1.30
2023-04-26T11:27:28.362Z,1.50
2023-04-26T11:29:54.981Z,1.30
2023-04-26T11:32:21.474Z,1.40
2023-04-26T11:34:50.781Z,1.10
2023-04-26T11:37:17.826Z,1.03
2023-04-26T11:39:45.189Z,2.03
2023-04-26T11:42:12.493Z,1.10
2023-04-26T11:44:41.613Z,1.50
2023-04-26T11:47:08.909Z,1.43
2023-04-26T11:49:38.928Z,1.40
2023-04-26T11:52:06.064Z,1.77
2023-04-26T11:54:33.694Z,1.30
2023-04-26T11:57:01.024Z,1.70
2023-04-26T11:59:29.246Z,1.53
2023-04-26T12:01:56.701Z,1.40
2023-04-26T12:04:30.548Z,1.40
2023-04-26T12:06:57.920Z,1.60
2023-04-26T12:09:25.024Z,2.87
2023-04-26T12:11:58.973Z,1.87
2023-04-26T12:14:32.448Z,1.73
2023-04-26T12:16:59.992Z,1.30
2023-04-26T12:19:26.635Z,1.63
2023-04-26T12:21:54.550Z,2.87
2023-04-26T12:24:22.228Z,2.03
2023-04-26T12:26:48.922Z,2.80
2023-04-26T12:29:15.511Z,2.23
2023-04-26T12:31:42.634Z,3.83
2023-04-26T12:34:09.244Z,2.67
2023-04-26T12:36:35.882Z,2.00
2023-04-26T12:39:05.332Z,2.70
2023-04-26T12:41:31.958Z,2.43
2023-04-26T12:43:58.581Z,2.00
2023-04-26T12:46:26.170Z,1.33
2023-04-26T12:48:53.163Z,1.67
2023-04-26T12:51:19.693Z,3.03
2023-04-26T12:53:46.245Z,1.97
2023-04-26T12:56:12.839Z,2.90
2023-04-26T12:58:39.322Z,1.83
2023-04-26T13:01:05.879Z,3.43
2023-04-26T13:03:32.623Z,2.70
2023-04-26T13:05:59.265Z,3.33
2023-04-26T13:08:25.950Z,2.30
2023-04-26T13:10:52.506Z,3.23
2023-04-26T13:13:21.987Z,2.80
2023-04-26T13:15:50.560Z,2.40
2023-04-26T13:18:18.391Z,3.07
2023-04-26T13:20:45.652Z,2.13
2023-04-26T13:23:12.212Z,3.23
2023-04-26T13:25:38.981Z,2.33
2023-04-26T13:28:05.473Z,2.80
2023-04-26T13:30:31.981Z,3.50
2023-04-26T13:33:00.090Z,3.93
2023-04-26T13:35:27.100Z,4.57
2023-04-26T13:37:53.691Z,7.57
2023-04-26T13:40:22.186Z,7.13
2023-04-26T13:42:48.721Z,5.90
2023-04-26T13:45:16.169Z,4.03
2023-04-26T13:47:43.619Z,3.60
2023-04-26T13:50:10.480Z,2.30
2023-04-26T13:52:37.113Z,4.47
2023-04-26T13:55:04.444Z,2.43
2023-04-26T13:57:31.483Z,1.73
2023-04-26T13:59:57.995Z,2.27
2023-04-26T14:02:24.952Z,3.23
2023-04-26T14:04:51.968Z,2.53
2023-04-26T14:07:18.676Z,6.60
2023-04-26T14:09:45.380Z,5.77
2023-04-26T14:12:12.063Z,1.60
2023-04-26T14:14:38.602Z,1.80
2023-04-26T14:17:05.560Z,2.17
2023-04-26T14:19:32.082Z,1.93
2023-04-26T14:21:58.717Z,3.97
2023-04-26T14:24:25.268Z,2.30
2023-04-26T14:26:51.907Z,3.30
2023-04-26T14:29:18.449Z,2.50
2023-04-26T14:31:45.387Z,1.80
2023-04-26T14:34:13.265Z,1.83
2023-04-26T14:36:39.870Z,2.20
2023-04-26T14:39:06.384Z,4.00
2023-04-26T14:41:32.909Z,6.90
2023-04-26T14:43:59.409Z,2.00
2023-04-26T14:46:26.117Z,3.50
2023-04-26T14:48:52.709Z,3.30
2023-04-26T14:51:19.215Z,3.40
2023-04-26T14:53:45.844Z,3.00
2023-04-26T14:56:12.367Z,2.20
2023-04-26T14:58:38.905Z,2.37
2023-04-26T15:01:05.544Z,3.10
2023-04-26T15:03:32.910Z,1.60
2023-04-26T15:06:00.099Z,2.00
2023-04-26T15:08:27.567Z,2.10
2023-04-26T15:10:54.174Z,2.33
2023-04-26T15:13:20.814Z,3.27
2023-04-26T15:15:47.475Z,2.67
2023-04-26T15:18:14.109Z,2.60
2023-04-26T15:20:41.485Z,2.20
2023-04-26T15:23:08.474Z,2.40
2023-04-26T15:25:36.498Z,2.10
2023-04-26T15:28:03.481Z,2.50
2023-04-26T15:30:30.677Z,2.03
2023-04-26T15:32:57.425Z,2.20
2023-04-26T15:35:25.139Z,2.20
2023-04-26T15:37:53.850Z,1.90
2023-04-26T15:40:21.184Z,1.93
2023-04-26T15:42:49.198Z,2.20
2023-04-26T15:45:15.795Z,2.20
2023-04-26T15:47:42.526Z,2.60
2023-04-26T15:50:09.748Z,3.10
2023-04-26T15:52:38.856Z,2.90
2023-04-26T15:55:07.253Z,4.30
2023-04-26T15:57:34.693Z,4.10
2023-04-26T16:00:01.800Z,3.10
2023-04-26T16:02:31.074Z,4.13
2023-04-26T16:04:57.881Z,5.87
2023-04-26T16:07:24.485Z,4.40
2023-04-26T16:09:51.242Z,3.03
2023-04-26T16:12:17.756Z,2.90
2023-04-26T16:14:44.372Z,2.30
2023-04-26T16:17:10.908Z,2.27
2023-04-26T16:19:37.501Z,2.43
2023-04-26T16:22:04.249Z,3.33
2023-04-26T16:24:30.974Z,13.23
2023-04-26T16:26:58.798Z,5.77
2023-04-26T16:29:25.499Z,3.20
2023-04-26T16:31:52.738Z,4.40
2023-04-26T16:34:20.030Z,2.33
2023-04-26T16:36:46.797Z,3.80
2023-04-26T16:39:15.796Z,3.80
2023-04-26T16:41:42.835Z,2.63
2023-04-26T16:44:09.391Z,2.57
2023-04-26T16:46:35.967Z,2.30
2023-04-26T16:49:04.355Z,2.13
2023-04-26T16:51:30.890Z,2.50
2023-04-26T16:53:57.886Z,3.43
2023-04-26T16:56:24.374Z,3.53
2023-04-26T16:58:51.187Z,2.60
2023-04-26T17:01:17.808Z,2.70
2023-04-26T17:03:44.601Z,2.77
2023-04-26T17:06:11.238Z,2.53
2023-04-26T17:08:38.071Z,2.50
2023-04-26T17:11:04.638Z,2.83
2023-04-26T17:13:33.346Z,3.30
2023-04-26T17:15:59.970Z,2.63
2023-04-26T17:18:26.720Z,2.97
2023-04-26T17:20:56.189Z,2.70
2023-04-26T17:23:22.694Z,2.50
2023-04-26T17:25:49.523Z,2.47
2023-04-26T17:28:16.399Z,2.33
2023-04-26T17:30:42.948Z,2.30
2023-04-26T17:33:09.668Z,2.33
2023-04-26T17:35:36.241Z,2.40
2023-04-26T17:38:03.124Z,2.72
2023-04-26T17:40:29.669Z,2.70
2023-04-26T17:42:56.236Z,2.20
2023-04-26T17:45:23.222Z,2.30
2023-04-26T17:47:49.862Z,2.70
2023-04-26T17:50:17.822Z,2.30
2023-04-26T17:52:44.404Z,2.20
2023-04-26T17:55:11.292Z,3.00
2023-04-26T17:57:40.413Z,2.67
2023-04-26T18:00:09.199Z,3.20
2023-04-26T18:02:36.416Z,2.40
2023-04-26T18:05:04.036Z,2.40
2023-04-26T18:07:30.945Z,2.53
2023-04-26T18:09:57.485Z,2.60
2023-04-26T18:12:24.060Z,2.40
2023-04-26T18:14:51.874Z,3.00
2023-04-26T18:17:18.611Z,2.90
2023-04-26T18:19:45.333Z,2.70
2023-04-26T18:22:12.284Z,3.03
2023-04-26T18:24:38.848Z,2.67
2023-04-26T18:27:06.289Z,2.87
2023-04-26T18:29:32.902Z,2.60
2023-04-26T18:31:59.466Z,2.70
2023-04-26T18:34:26.166Z,2.60
2023-04-26T18:36:52.780Z,2.50
2023-04-26T18:39:19.295Z,2.80
2023-04-26T18:41:45.911Z,2.80
2023-04-26T18:44:15.520Z,2.77
2023-04-26T18:46:43.076Z,3.27
2023-04-26T18:49:09.956Z,3.27
2023-04-26T18:51:36.574Z,3.00
2023-04-26T18:54:03.232Z,3.43
2023-04-26T18:56:29.878Z,4.03
2023-04-26T18:58:56.476Z,4.20
2023-04-26T19:01:23.375Z,5.23
2023-04-26T19:03:50.125Z,6.37
2023-04-26T19:06:16.922Z,6.70
2023-04-26T19:08:44.239Z,6.20
2023-04-26T19:11:12.291Z,4.33
2023-04-26T19:13:40.148Z,3.73
2023-04-26T19:16:07.411Z,3.80
2023-04-26T19:18:34.108Z,3.60
2023-04-26T19:21:07.331Z,3.50
2023-04-26T19:23:34.394Z,3.93
2023-04-26T19:26:04.153Z,4.70
2023-04-26T19:28:31.294Z,4.30
2023-04-26T19:30:58.093Z,4.50
2023-04-26T19:33:25.066Z,4.23
2023-04-26T19:35:51.834Z,4.20
2023-04-26T19:38:18.464Z,4.17
2023-04-26T19:40:45.046Z,3.83
2023-04-26T19:43:11.606Z,3.83
2023-04-26T19:45:40.873Z,3.73
2023-04-26T19:48:13.611Z,3.73
2023-04-26T19:50:40.443Z,3.77
2023-04-26T19:53:07.596Z,4.63
2023-04-26T19:55:34.145Z,4.90
2023-04-26T19:58:00.689Z,5.83
2023-04-26T20:00:30.180Z,6.67
2023-04-26T20:02:57.975Z,6.93
2023-04-26T20:05:25.339Z,7.20
2023-04-26T20:07:52.550Z,7.17
2023-04-26T20:10:20.016Z,7.37
2023-04-26T20:12:46.566Z,5.60
2023-04-26T20:15:15.062Z,4.77
2023-04-26T20:17:42.679Z,4.70
2023-04-26T20:20:10.284Z,3.93
2023-04-26T20:22:37.065Z,3.73
2023-04-26T20:25:04.329Z,3.80
2023-04-26T20:27:31.540Z,3.73
2023-04-26T20:29:58.085Z,3.07
2023-04-26T20:32:24.851Z,3.47
2023-04-26T20:34:51.450Z,3.40
2023-04-26T20:37:17.969Z,3.57
2023-04-26T20:39:44.673Z,3.30
2023-04-26T20:42:11.258Z,3.73
2023-04-26T20:44:37.981Z,3.73
2023-04-26T20:47:04.673Z,3.70
2023-04-26T20:49:31.247Z,3.37
2023-04-26T20:51:57.749Z,3.70
2023-04-26T20:54:24.324Z,3.57
2023-04-26T20:56:50.965Z,3.70
2023-04-26T20:59:17.907Z,3.60
2023-04-26T21:01:44.477Z,3.60
2023-04-26T21:04:11.178Z,4.00
2023-04-26T21:06:37.881Z,3.07
2023-04-26T21:09:05.324Z,3.50
2023-04-26T21:11:31.897Z,4.00
2023-04-26T21:13:58.836Z,3.60
2023-04-26T21:16:25.572Z,3.50
2023-04-26T21:18:52.577Z,3.43
2023-04-26T21:21:19.143Z,3.83
2023-04-26T21:23:45.643Z,3.30
2023-04-26T21:26:12.271Z,3.27
2023-04-26T21:28:38.773Z,3.97
2023-04-26T21:31:06.210Z,3.60
2023-04-26T21:33:33.306Z,3.50
2023-04-26T21:36:00.602Z,3.43
2023-04-26T21:38:27.292Z,3.57
2023-04-26T21:40:53.885Z,3.83
2023-04-26T21:43:21.680Z,3.63
2023-04-26T21:45:50.221Z,3.60
2023-04-26T21:48:16.939Z,3.77
2023-04-26T21:50:43.516Z,3.50
2023-04-26T21:53:09.995Z,3.50
2023-04-26T21:55:36.546Z,3.37
2023-04-26T21:58:03.028Z,3.43
2023-04-26T22:00:29.712Z,3.67
2023-04-26T22:02:56.447Z,3.40
2023-04-26T22:05:25.832Z,3.27
2023-04-26T22:07:55.442Z,3.43
2023-04-26T22:10:22.231Z,3.77
2023-04-26T22:12:48.758Z,3.30
2023-04-26T22:15:15.314Z,3.53
2023-04-26T22:17:42.025Z,3.60
2023-04-26T22:20:08.867Z,3.60
2023-04-26T22:22:35.392Z,3.50
2023-04-26T22:25:01.996Z,3.40
2023-04-26T22:27:29.177Z,3.67
2023-04-26T22:29:55.681Z,3.70
2023-04-26T22:32:22.265Z,3.60
2023-04-26T22:34:49.202Z,3.33
2023-04-26T22:37:21.401Z,3.80
2023-04-26T22:39:48.689Z,3.33
2023-04-26T22:42:15.336Z,3.80
2023-04-26T22:44:42.119Z,3.90
2023-04-26T22:47:08.686Z,3.60
2023-04-26T22:49:35.238Z,3.80
2023-04-26T22:52:07.871Z,4.00
2023-04-26T22:54:38.444Z,3.53
2023-04-26T22:57:07.324Z,3.60
2023-04-26T22:59:34.397Z,3.23
2023-04-26T23:02:01.444Z,3.80
2023-04-26T23:04:28.053Z,3.73
2023-04-26T23:06:54.746Z,3.83
2023-04-26T23:09:21.442Z,3.60
2023-04-26T23:11:48.031Z,3.33
2023-04-26T23:14:15.794Z,3.40
2023-04-26T23:16:42.571Z,3.43
2023-04-26T23:19:09.648Z,3.77
2023-04-26T23:21:36.378Z,3.80
2023-04-26T23:24:03.067Z,3.70
2023-04-26T23:26:29.608Z,3.50
2023-04-26T23:28:57.251Z,3.63
2023-04-26T23:31:23.897Z,3.83
2023-04-26T23:33:50.489Z,3.63
2023-04-26T23:36:17.029Z,3.50
2023-04-26T23:38:43.543Z,3.67
2023-04-26T23:41:10.056Z,3.60
2023-04-26T23:43:36.614Z,3.70
2023-04-26T23:46:03.181Z,3.50
2023-04-26T23:48:29.815Z,3.50
2023-04-26T23:50:56.451Z,3.70
2023-04-26T23:53:23.049Z,3.50
2023-04-26T23:55:49.605Z,3.70
2023-04-26T23:58:16.313Z,4.00
